Garfield County Regional Airport
KRIL : now visible

Airfield :











YOU CAN JOIN US ON...

 
LOGIN :

Register | Disclaimer

   EN    FR    IT 

 









Legend :    VFR   Marginal VFR   IFR   Intensive IFR   Very Intensive IFR
Visi :
Ceiling :
>= 8 km
>= 3000ft
5 to 8 km
1000 to 3000 ft
1500m to 5 km
500 to 1000 ft
800 to 1500m
200 to 500 ft
< 800m
< 200 ft
Symbols :   Thunderstorms  Fog  Heavy snow  Heavy precipitations  Wind > 20 kt






- Airport Elevation : 5548 ft


KRIL - Garfield County Regional

CURRENT METAR :
  • 110853Z AUTO 19003KT 10SM CLR M06/M08 A3033 RMK AO2 SLP287 T10561083 55004

EXPIRED METARs :
  • 110753Z AUTO 00000KT 10SM CLR M05/M08 A3032 RMK AO2 SLP287 T10501078
  • 110653Z AUTO 17003KT 10SM CLR M05/M07 A3034 RMK AO2 SLP297 T10501072 400561061

TAF KRIL
Valid from the 11 at 06:00 until the 12 at 06:00 UTC


110520Z 1106/1206 VRB03KT P6SM SCT250



MET'MAP, your aeronautical weather chart ! - Copyright ORBIFLY December 2007 - Disclaimer

ORBIFLY MET'MAP TEAM :

Programming & Development : Alexandra Zaïnal
Concept & original design : Baudouin d'Aumeries
Assistance for programming : Marc-Olivier Méhu
Technical & hardware support : Manuel Goepfert

Contact : metmap@orbifly.com




SOURCES & CREDITS :

   NOAA       Earth
Advisory